Time;durP1;ratioP1;P1;durP2;ratioP2;P2;SDS_P1;SDS_P2;PMS_P1;PMS_P2;Temp;Humidity;BMP_temperature;BMP_pressure;BME280_temperature;BME280_humidity;BME280_pressure;Samples;Min_cycle;Max_cycle;Signal;HPM_P1;HPM_P2
2023/09/14 00:01:41;;;;;;;13.95;4.63;;;;;;;;;;6314471;28;20419;-65
2023/09/14 00:04:43;;;;;;;9.48;3.22;;;;;;;;;;6305325;28;20048;-65
2023/09/14 00:07:45;;;;;;;6.50;2.45;;;;;;;;;;6307076;28;20052;-65
2023/09/14 00:10:53;;;;;;;5.85;2.75;;;;;;;;;;6307142;28;20109;-66
2023/09/14 00:13:55;;;;;;;11.40;3.03;;;;;;;;;;6299278;28;20548;-66
2023/09/14 00:16:57;;;;;;;10.45;5.88;;;;;;;;;;6309695;28;20408;-65
2023/09/14 00:20:00;;;;;;;9.50;3.35;;;;;;;;;;6301435;28;20056;-66
2023/09/14 00:23:03;;;;;;;9.10;3.50;;;;;;;;;;6308137;28;20040;-66
2023/09/14 00:26:05;;;;;;;11.77;3.38;;;;;;;;;;6309162;28;20185;-66
2023/09/14 00:29:07;;;;;;;8.20;3.25;;;;;;;;;;6307467;28;20044;-66
2023/09/14 00:32:09;;;;;;;11.52;4.10;;;;;;;;;;6312507;28;20051;-65
2023/09/14 00:35:13;;;;;;;9.07;3.90;;;;;;;;;;6286224;28;20047;-65
2023/09/14 00:38:15;;;;;;;8.80;2.88;;;;;;;;;;6306726;28;20041;-66
2023/09/14 00:41:16;;;;;;;10.60;3.08;;;;;;;;;;6313559;28;20062;-65
2023/09/14 00:44:18;;;;;;;9.02;3.17;;;;;;;;;;6312853;28;20044;-66
2023/09/14 00:47:20;;;;;;;8.45;2.92;;;;;;;;;;6297933;28;20107;-65
2023/09/14 00:50:23;;;;;;;8.35;3.88;;;;;;;;;;6297344;28;20058;-65
2023/09/14 00:53:24;;;;;;;8.63;3.60;;;;;;;;;;6288481;28;20065;-66
2023/09/14 00:56:27;;;;;;;10.20;5.65;;;;;;;;;;6287675;28;20739;-66
2023/09/14 00:59:31;;;;;;;9.18;2.83;;;;;;;;;;6276977;28;20048;-66
2023/09/14 01:02:33;;;;;;;8.32;3.03;;;;;;;;;;6291300;28;20055;-65
2023/09/14 01:05:35;;;;;;;11.90;2.75;;;;;;;;;;6278192;28;20048;-65
2023/09/14 01:08:38;;;;;;;8.18;3.67;;;;;;;;;;6286026;28;20058;-65
2023/09/14 01:11:39;;;;;;;9.20;3.33;;;;;;;;;;6312953;28;20119;-66
2023/09/14 01:14:58;;;;;;;11.73;3.50;;;;;;;;;;6301267;28;20040;-65
2023/09/14 01:18:18;;;;;;;13.23;4.93;;;;;;;;;;6290429;28;20465;-65
2023/09/14 01:21:51;;;;;;;12.63;2.83;;;;;;;;;;6290391;28;20044;-65
2023/09/14 01:25:04;;;;;;;10.80;3.67;;;;;;;;;;6293807;28;20051;-66
2023/09/14 01:28:11;;;;;;;9.40;4.13;;;;;;;;;;6287891;28;20450;-65
2023/09/14 01:31:13;;;;;;;6.38;3.08;;;;;;;;;;6301644;28;20041;-65
2023/09/14 01:34:16;;;;;;;8.00;3.17;;;;;;;;;;6302872;28;20068;-66
2023/09/14 01:37:19;;;;;;;12.20;3.85;;;;;;;;;;6269841;28;20048;-65
2023/09/14 01:40:22;;;;;;;10.00;2.97;;;;;;;;;;6274709;28;20036;-65
2023/09/14 01:43:25;;;;;;;8.82;3.75;;;;;;;;;;6306995;28;20040;-66
2023/09/14 01:46:27;;;;;;;9.35;3.00;;;;;;;;;;6286225;28;20055;-65
2023/09/14 01:49:29;;;;;;;8.60;3.78;;;;;;;;;;6274247;28;20857;-65
2023/09/14 01:52:31;;;;;;;10.20;3.75;;;;;;;;;;6311732;28;20048;-65
2023/09/14 01:55:33;;;;;;;13.25;3.03;;;;;;;;;;6304558;28;20529;-65
2023/09/14 01:58:35;;;;;;;7.82;3.63;;;;;;;;;;6290817;28;20825;-66
2023/09/14 02:01:37;;;;;;;9.70;4.20;;;;;;;;;;6308001;28;20084;-66
2023/09/14 02:04:41;;;;;;;10.13;3.72;;;;;;;;;;6292357;28;20044;-65
2023/09/14 02:07:43;;;;;;;11.02;3.63;;;;;;;;;;6282261;28;20049;-65
2023/09/14 02:10:45;;;;;;;16.98;4.72;;;;;;;;;;6301879;28;20056;-65
2023/09/14 02:13:47;;;;;;;10.55;4.60;;;;;;;;;;6293643;28;20047;-66
2023/09/14 02:16:49;;;;;;;9.75;5.53;;;;;;;;;;6293419;28;20055;-66
2023/09/14 02:19:53;;;;;;;8.98;5.72;;;;;;;;;;6282175;28;20135;-65
2023/09/14 02:22:55;;;;;;;9.13;4.22;;;;;;;;;;6305040;28;20431;-66
2023/09/14 02:25:57;;;;;;;10.75;5.25;;;;;;;;;;6296701;28;20079;-66
2023/09/14 02:28:59;;;;;;;10.48;5.50;;;;;;;;;;6304792;28;20626;-66
2023/09/14 02:32:01;;;;;;;9.90;5.25;;;;;;;;;;6293045;28;20094;-65
2023/09/14 02:35:03;;;;;;;7.53;6.55;;;;;;;;;;6284256;28;20780;-65
2023/09/14 02:38:05;;;;;;;10.00;6.60;;;;;;;;;;6293244;28;20434;-65
2023/09/14 02:41:07;;;;;;;13.25;5.55;;;;;;;;;;6283761;28;20048;-65
2023/09/14 02:44:09;;;;;;;9.82;5.45;;;;;;;;;;6300383;28;20120;-65
2023/09/14 02:47:11;;;;;;;11.52;5.38;;;;;;;;;;6276083;28;20049;-66
2023/09/14 02:50:13;;;;;;;8.10;4.88;;;;;;;;;;6299826;28;20043;-66
2023/09/14 02:53:15;;;;;;;7.47;4.30;;;;;;;;;;6296365;28;20051;-66
2023/09/14 02:56:17;;;;;;;9.48;4.65;;;;;;;;;;6302172;28;20048;-66
2023/09/14 02:59:19;;;;;;;11.02;5.03;;;;;;;;;;6287530;28;20191;-66
2023/09/14 03:02:24;;;;;;;8.63;4.68;;;;;;;;;;6288017;28;20796;-66
2023/09/14 03:05:27;;;;;;;12.07;5.47;;;;;;;;;;6296906;28;20062;-65
2023/09/14 03:08:29;;;;;;;9.80;5.10;;;;;;;;;;6307025;28;20048;-65
2023/09/14 03:11:31;;;;;;;11.98;5.22;;;;;;;;;;6286261;28;20797;-65
2023/09/14 03:14:34;;;;;;;9.68;5.57;;;;;;;;;;6272500;28;20789;-65
2023/09/14 03:17:36;;;;;;;13.10;6.07;;;;;;;;;;6308281;28;20101;-66
2023/09/14 03:20:38;;;;;;;13.18;5.68;;;;;;;;;;6292481;28;20048;-66
2023/09/14 03:23:40;;;;;;;7.57;4.60;;;;;;;;;;6290073;28;20044;-66
2023/09/14 03:26:43;;;;;;;13.95;4.75;;;;;;;;;;6298022;28;20045;-65
2023/09/14 03:29:45;;;;;;;10.68;4.47;;;;;;;;;;6310719;28;20048;-65
2023/09/14 03:32:47;;;;;;;9.98;4.65;;;;;;;;;;6281798;28;20037;-65
2023/09/14 03:35:49;;;;;;;7.85;4.97;;;;;;;;;;6285901;28;20135;-65
2023/09/14 03:38:51;;;;;;;9.65;4.88;;;;;;;;;;6309105;28;20047;-65
2023/09/14 03:41:58;;;;;;;12.20;4.45;;;;;;;;;;6280305;28;20062;-66
2023/09/14 03:45:00;;;;;;;8.00;4.72;;;;;;;;;;6306246;28;20044;-66
2023/09/14 03:48:02;;;;;;;9.60;6.60;;;;;;;;;;6310950;28;20056;-65
2023/09/14 03:51:04;;;;;;;11.68;5.13;;;;;;;;;;6283883;28;20051;-66
2023/09/14 03:54:06;;;;;;;11.10;5.78;;;;;;;;;;6300285;28;20601;-65
2023/09/14 03:57:16;;;;;;;8.88;4.70;;;;;;;;;;6285078;28;20040;-65
2023/09/14 04:00:18;;;;;;;10.80;5.47;;;;;;;;;;6289783;28;20044;-65
2023/09/14 04:03:22;;;;;;;9.18;4.72;;;;;;;;;;6291171;28;20036;-66
2023/09/14 04:06:24;;;;;;;8.88;4.82;;;;;;;;;;6294676;28;20051;-65
2023/09/14 04:09:29;;;;;;;11.02;6.15;;;;;;;;;;6285293;28;20043;-65
2023/09/14 04:12:32;;;;;;;9.80;5.05;;;;;;;;;;6298060;28;20048;-66
2023/09/14 04:15:33;;;;;;;11.68;6.38;;;;;;;;;;6294619;28;20408;-66
2023/09/14 04:18:38;;;;;;;10.25;8.40;;;;;;;;;;6291515;28;20415;-66
2023/09/14 04:21:41;;;;;;;13.45;5.88;;;;;;;;;;6288880;28;20044;-66
2023/09/14 04:24:44;;;;;;;12.38;5.28;;;;;;;;;;6280750;28;20044;-65
2023/09/14 04:27:47;;;;;;;10.07;5.35;;;;;;;;;;6304636;28;20131;-65
2023/09/14 04:30:51;;;;;;;12.10;5.55;;;;;;;;;;6276940;28;20134;-65
2023/09/14 04:33:53;;;;;;;12.20;5.40;;;;;;;;;;6293715;28;20040;-66
2023/09/14 04:36:56;;;;;;;15.55;6.00;;;;;;;;;;6287587;28;20257;-66
2023/09/14 04:40:00;;;;;;;13.93;6.10;;;;;;;;;;6290632;28;20055;-66
2023/09/14 04:43:03;;;;;;;9.65;4.95;;;;;;;;;;6285303;28;20564;-66
2023/09/14 04:46:06;;;;;;;11.75;6.43;;;;;;;;;;6310505;28;20177;-66
2023/09/14 04:49:12;;;;;;;16.20;6.15;;;;;;;;;;6290136;28;20568;-66
2023/09/14 04:52:14;;;;;;;;;;;;;;;;;;6294110;28;20059;-66
2023/09/14 04:55:16;;;;;;;27.08;5.93;;;;;;;;;;6310483;28;20471;-66
2023/09/14 04:58:18;;;;;;;13.95;5.70;;;;;;;;;;6286051;28;20042;-67
2023/09/14 05:01:20;;;;;;;15.32;4.97;;;;;;;;;;6307032;28;20082;-66
2023/09/14 05:04:24;;;;;;;19.40;5.30;;;;;;;;;;6294699;28;20067;-66
2023/09/14 05:07:26;;;;;;;11.02;5.07;;;;;;;;;;6300201;28;20044;-66
2023/09/14 05:10:28;;;;;;;12.65;4.82;;;;;;;;;;6301878;28;20048;-66
2023/09/14 05:13:30;;;;;;;18.45;4.85;;;;;;;;;;6302610;28;20591;-66
2023/09/14 05:16:32;;;;;;;12.93;6.82;;;;;;;;;;6307830;28;20835;-66
2023/09/14 05:19:34;;;;;;;12.48;5.68;;;;;;;;;;6285508;28;20086;-66
2023/09/14 05:22:38;;;;;;;14.00;5.40;;;;;;;;;;6289776;28;20092;-66
2023/09/14 05:25:40;;;;;;;12.52;5.40;;;;;;;;;;6300008;28;20044;-67
2023/09/14 05:28:42;;;;;;;12.52;5.82;;;;;;;;;;6280903;28;20048;-67
2023/09/14 05:31:46;;;;;;;10.45;4.72;;;;;;;;;;6277233;28;20078;-66
2023/09/14 05:34:48;;;;;;;12.63;5.53;;;;;;;;;;6270655;28;20047;-66
2023/09/14 05:37:51;;;;;;;19.48;5.60;;;;;;;;;;6305765;28;20055;-66
2023/09/14 05:40:53;;;;;;;16.83;5.75;;;;;;;;;;6289402;28;20051;-65
2023/09/14 05:43:56;;;;;;;17.13;5.45;;;;;;;;;;6278629;28;20045;-66
2023/09/14 05:46:57;;;;;;;13.52;5.43;;;;;;;;;;6280519;28;20128;-66
2023/09/14 05:50:00;;;;;;;8.40;6.57;;;;;;;;;;6286851;28;20464;-66
2023/09/14 05:53:02;;;;;;;11.93;4.65;;;;;;;;;;6294635;28;20040;-66
2023/09/14 05:56:04;;;;;;;10.65;5.90;;;;;;;;;;6289297;28;20048;-66
2023/09/14 05:59:08;;;;;;;15.52;5.07;;;;;;;;;;6264554;28;20048;-68
2023/09/14 06:02:27;;;;;;;10.48;4.88;;;;;;;;;;6286114;28;20055;-66
2023/09/14 06:05:29;;;;;;;12.13;5.93;;;;;;;;;;6299217;28;20036;-66
2023/09/14 06:08:31;;;;;;;7.25;4.72;;;;;;;;;;6292728;28;20052;-66
2023/09/14 06:11:33;;;;;;;10.40;4.53;;;;;;;;;;6288798;28;20044;-66
2023/09/14 06:14:37;;;;;;;7.97;4.57;;;;;;;;;;6276343;28;20040;-66
2023/09/14 06:17:39;;;;;;;10.07;5.30;;;;;;;;;;6299304;28;20056;-66
2023/09/14 06:20:41;;;;;;;10.60;4.55;;;;;;;;;;6298420;28;20535;-67
2023/09/14 06:23:44;;;;;;;13.75;4.90;;;;;;;;;;6296079;28;20043;-66
2023/09/14 06:26:47;;;;;;;11.77;5.82;;;;;;;;;;6299173;28;20443;-66
2023/09/14 06:29:49;;;;;;;14.38;5.72;;;;;;;;;;6281117;28;20048;-66
2023/09/14 06:32:52;;;;;;;9.07;4.28;;;;;;;;;;6303875;28;20131;-64
2023/09/14 06:35:54;;;;;;;14.25;4.85;;;;;;;;;;6298976;28;20131;-66
2023/09/14 06:38:56;;;;;;;8.85;4.40;;;;;;;;;;6293398;28;20779;-66
2023/09/14 06:41:58;;;;;;;10.55;6.90;;;;;;;;;;6304259;28;20674;-66
2023/09/14 06:45:01;;;;;;;11.02;5.55;;;;;;;;;;6283033;28;20542;-66
2023/09/14 06:48:03;;;;;;;7.38;4.93;;;;;;;;;;6284566;28;20048;-66
2023/09/14 06:51:06;;;;;;;10.90;4.15;;;;;;;;;;6306904;28;20124;-66
2023/09/14 06:54:08;;;;;;;12.45;5.05;;;;;;;;;;6302533;28;20048;-66
2023/09/14 06:57:10;;;;;;;7.25;4.00;;;;;;;;;;6297382;28;20044;-66
2023/09/14 07:00:16;;;;;;;11.60;4.78;;;;;;;;;;6304619;28;20526;-66
2023/09/14 07:03:18;;;;;;;7.40;4.03;;;;;;;;;;6298080;28;20040;-67
2023/09/14 07:06:20;;;;;;;11.85;4.25;;;;;;;;;;6306693;28;20069;-66
2023/09/14 07:09:23;;;;;;;11.00;6.97;;;;;;;;;;6301467;28;20560;-66
2023/09/14 07:12:26;;;;;;;13.32;5.07;;;;;;;;;;6300229;28;20052;-66
2023/09/14 07:15:29;;;;;;;14.65;4.63;;;;;;;;;;6296700;28;20063;-66
2023/09/14 07:18:32;;;;;;;9.68;4.20;;;;;;;;;;6301541;28;20566;-66
2023/09/14 07:21:37;;;;;;;7.03;3.72;;;;;;;;;;6294623;28;20059;-67
2023/09/14 07:24:39;;;;;;;9.23;4.07;;;;;;;;;;6287834;28;20048;-66
2023/09/14 07:27:41;;;;;;;6.97;4.13;;;;;;;;;;6278211;28;20044;-65
2023/09/14 07:30:44;;;;;;;9.40;4.00;;;;;;;;;;6304140;28;20087;-67
2023/09/14 07:33:46;;;;;;;5.30;3.92;;;;;;;;;;6295559;28;20591;-67
2023/09/14 07:36:49;;;;;;;7.22;3.90;;;;;;;;;;6292241;28;20514;-64
2023/09/14 07:39:51;;;;;;;16.33;6.75;;;;;;;;;;6302256;28;20498;-64
2023/09/14 07:42:54;;;;;;;6.22;3.78;;;;;;;;;;6298107;28;20805;-64
2023/09/14 07:45:56;;;;;;;9.25;4.43;;;;;;;;;;6298417;28;20071;-64
2023/09/14 07:48:59;;;;;;;10.23;3.53;;;;;;;;;;6287089;28;20083;-65
2023/09/14 07:52:01;;;;;;;7.90;5.05;;;;;;;;;;6283356;28;20130;-65
2023/09/14 07:55:04;;;;;;;10.57;3.78;;;;;;;;;;6298708;28;20040;-65
2023/09/14 07:58:06;;;;;;;10.07;3.67;;;;;;;;;;6301471;28;20044;-65
2023/09/14 08:01:08;;;;;;;8.95;3.58;;;;;;;;;;6294324;28;20063;-65
2023/09/14 08:04:10;;;;;;;8.60;3.80;;;;;;;;;;6307080;28;20043;-65
2023/09/14 08:07:15;;;;;;;10.90;4.03;;;;;;;;;;6303088;28;20094;-65
2023/09/14 08:10:17;;;;;;;8.05;3.55;;;;;;;;;;6301271;28;20045;-65
2023/09/14 08:13:21;;;;;;;14.15;3.63;;;;;;;;;;6304482;28;20105;-65
2023/09/14 08:16:23;;;;;;;15.07;5.93;;;;;;;;;;6303466;28;20835;-66
2023/09/14 08:19:26;;;;;;;10.07;4.05;;;;;;;;;;6299850;28;20059;-65
2023/09/14 08:22:28;;;;;;;11.10;4.10;;;;;;;;;;6299766;28;20044;-65
2023/09/14 08:25:31;;;;;;;11.82;4.35;;;;;;;;;;6311864;28;20036;-65
2023/09/14 08:28:33;;;;;;;10.55;3.55;;;;;;;;;;6306940;28;20145;-65
2023/09/14 08:31:35;;;;;;;10.15;4.45;;;;;;;;;;6296629;28;20048;-65
2023/09/14 08:34:37;;;;;;;10.35;4.03;;;;;;;;;;6302433;28;20067;-65
2023/09/14 08:37:39;;;;;;;12.05;4.50;;;;;;;;;;6291682;28;20049;-66
2023/09/14 08:40:42;;;;;;;13.70;5.15;;;;;;;;;;6302215;28;20056;-65
2023/09/14 08:43:45;;;;;;;9.50;4.60;;;;;;;;;;6286935;28;20043;-65
2023/09/14 08:46:48;;;;;;;7.93;3.70;;;;;;;;;;6302969;28;20044;-65
2023/09/14 08:49:51;;;;;;;10.80;3.85;;;;;;;;;;6305106;28;20189;-66
2023/09/14 08:52:54;;;;;;;10.45;4.28;;;;;;;;;;6280282;28;20056;-65
2023/09/14 08:55:56;;;;;;;12.13;4.05;;;;;;;;;;6302459;28;20526;-65
2023/09/14 08:59:01;;;;;;;13.57;4.18;;;;;;;;;;6293123;28;20043;-65
2023/09/14 09:02:04;;;;;;;14.20;3.63;;;;;;;;;;6303065;28;20605;-65
2023/09/14 09:05:06;;;;;;;9.00;3.72;;;;;;;;;;6309548;28;20047;-65
2023/09/14 09:08:09;;;;;;;7.97;2.95;;;;;;;;;;6268268;28;20062;-65
2023/09/14 09:11:11;;;;;;;10.55;4.82;;;;;;;;;;6301439;28;20263;-65
2023/09/14 09:14:14;;;;;;;10.00;3.50;;;;;;;;;;6297498;28;20047;-65
2023/09/14 09:17:16;;;;;;;9.35;4.10;;;;;;;;;;6302577;28;20122;-66
2023/09/14 09:20:22;;;;;;;10.93;4.57;;;;;;;;;;6302791;28;20638;-66
2023/09/14 09:23:25;;;;;;;9.10;3.17;;;;;;;;;;6298574;28;20133;-66
2023/09/14 09:26:38;;;;;;;14.30;3.40;;;;;;;;;;6302028;28;20039;-66
2023/09/14 09:29:40;;;;;;;7.35;3.38;;;;;;;;;;6305208;28;20115;-67
2023/09/14 09:32:42;;;;;;;8.93;3.78;;;;;;;;;;6299895;28;20059;-66
2023/09/14 09:35:44;;;;;;;8.85;3.25;;;;;;;;;;6307465;28;20045;-66
2023/09/14 09:38:47;;;;;;;9.18;3.80;;;;;;;;;;6301210;28;20053;-66
2023/09/14 09:41:51;;;;;;;12.60;4.10;;;;;;;;;;6287251;28;20140;-67
2023/09/14 09:44:58;;;;;;;7.40;3.38;;;;;;;;;;6302249;28;20134;-67
2023/09/14 09:48:01;;;;;;;7.05;3.28;;;;;;;;;;6298503;28;20041;-66
2023/09/14 09:51:04;;;;;;;14.73;4.78;;;;;;;;;;6300413;28;20048;-66
2023/09/14 09:54:07;;;;;;;14.75;4.50;;;;;;;;;;6273176;28;20102;-66
2023/09/14 09:57:09;;;;;;;15.07;5.22;;;;;;;;;;6304422;28;20182;-67
2023/09/14 10:00:13;;;;;;;11.30;3.25;;;;;;;;;;6311595;28;20048;-66
2023/09/14 10:03:17;;;;;;;9.27;3.92;;;;;;;;;;6304401;28;20072;-66
2023/09/14 10:06:19;;;;;;;10.15;3.47;;;;;;;;;;6295795;28;20052;-66
2023/09/14 10:09:22;;;;;;;9.52;3.92;;;;;;;;;;6304634;28;20056;-66
2023/09/14 10:12:24;;;;;;;9.20;3.38;;;;;;;;;;6301743;28;20260;-66
2023/09/14 10:15:28;;;;;;;8.70;3.47;;;;;;;;;;6287672;28;20036;-66
2023/09/14 10:18:32;;;;;;;9.15;3.58;;;;;;;;;;6299689;28;20083;-67
2023/09/14 10:21:39;;;;;;;9.25;3.50;;;;;;;;;;6283767;28;20079;-66
2023/09/14 10:24:42;;;;;;;6.65;3.42;;;;;;;;;;6303907;28;20054;-67
2023/09/14 10:27:44;;;;;;;9.18;3.13;;;;;;;;;;6285554;28;20490;-66
2023/09/14 10:30:46;;;;;;;10.95;3.75;;;;;;;;;;6301714;28;20186;-66
2023/09/14 10:33:49;;;;;;;6.15;2.63;;;;;;;;;;6297254;28;20040;-66
2023/09/14 10:36:53;;;;;;;8.23;2.80;;;;;;;;;;6299104;28;20057;-67
2023/09/14 10:39:55;;;;;;;7.15;2.67;;;;;;;;;;6277969;28;20048;-66
2023/09/14 10:42:57;;;;;;;10.70;6.43;;;;;;;;;;6302415;28;20511;-67
2023/09/14 10:46:01;;;;;;;8.15;3.17;;;;;;;;;;6282952;28;20043;-66
2023/09/14 10:49:04;;;;;;;8.40;4.18;;;;;;;;;;6287620;28;20062;-67
2023/09/14 10:52:06;;;;;;;8.88;3.25;;;;;;;;;;6282318;28;20044;-66
2023/09/14 10:55:09;;;;;;;6.78;3.47;;;;;;;;;;6292120;28;20138;-67
2023/09/14 10:58:16;;;;;;;10.25;3.72;;;;;;;;;;6296904;28;20051;-66
2023/09/14 11:01:25;;;;;;;8.32;3.67;;;;;;;;;;6299968;28;20047;-66
2023/09/14 11:04:31;;;;;;;8.55;3.03;;;;;;;;;;6290622;28;20091;-66
2023/09/14 11:07:44;;;;;;;9.93;3.78;;;;;;;;;;6298963;28;20063;-67
2023/09/14 11:10:56;;;;;;;13.32;4.88;;;;;;;;;;6299618;28;20420;-66
2023/09/14 11:14:00;;;;;;;10.13;3.35;;;;;;;;;;6298740;28;20048;-66
2023/09/14 11:17:04;;;;;;;8.90;3.33;;;;;;;;;;6294692;28;20059;-66
2023/09/14 11:20:26;;;;;;;8.45;3.40;;;;;;;;;;6300346;28;20079;-66
2023/09/14 11:23:37;;;;;;;10.38;3.45;;;;;;;;;;6307551;28;20050;-64
2023/09/14 11:26:45;;;;;;;10.55;3.70;;;;;;;;;;6307398;28;20130;-68
2023/09/14 11:29:51;;;;;;;8.27;3.42;;;;;;;;;;6300958;28;20591;-66
2023/09/14 11:32:54;;;;;;;9.73;4.22;;;;;;;;;;6309884;28;20040;-66
2023/09/14 11:35:59;;;;;;;9.48;3.28;;;;;;;;;;6303323;28;20175;-66
2023/09/14 11:39:10;;;;;;;9.38;3.53;;;;;;;;;;6302236;28;20048;-64
2023/09/14 11:42:16;;;;;;;10.48;3.45;;;;;;;;;;6306053;28;20052;-65
2023/09/14 11:45:24;;;;;;;5.85;3.35;;;;;;;;;;6298182;28;20040;-65
2023/09/14 11:48:37;;;;;;;7.93;3.65;;;;;;;;;;6309085;28;20051;-66
2023/09/14 11:51:42;;;;;;;10.18;3.65;;;;;;;;;;6316381;28;20031;-66
2023/09/14 11:54:49;;;;;;;7.63;3.30;;;;;;;;;;6300117;28;20138;-64
2023/09/14 11:57:52;;;;;;;8.52;4.03;;;;;;;;;;6303425;28;20049;-66
2023/09/14 12:00:55;;;;;;;5.30;2.85;;;;;;;;;;6304646;28;20052;-65
2023/09/14 12:03:58;;;;;;;10.07;4.00;;;;;;;;;;6288933;28;20045;-65
2023/09/14 12:07:01;;;;;;;11.45;3.63;;;;;;;;;;6311591;28;20043;-65
2023/09/14 12:10:19;;;;;;;7.22;4.00;;;;;;;;;;6306313;28;20048;-65
2023/09/14 12:13:22;;;;;;;7.43;3.60;;;;;;;;;;6304472;28;20128;-65
2023/09/14 12:16:27;;;;;;;6.82;3.60;;;;;;;;;;6309781;28;20054;-65
2023/09/14 12:19:30;;;;;;;9.10;5.35;;;;;;;;;;6303780;28;20547;-65
2023/09/14 12:22:32;;;;;;;9.18;3.50;;;;;;;;;;6305938;28;20054;-66
2023/09/14 12:25:35;;;;;;;9.88;3.40;;;;;;;;;;6314630;28;20071;-65
2023/09/14 12:28:37;;;;;;;7.78;4.32;;;;;;;;;;6291070;28;20127;-65
2023/09/14 12:31:40;;;;;;;10.35;3.33;;;;;;;;;;6298595;28;20049;-65
2023/09/14 12:34:42;;;;;;;8.60;4.20;;;;;;;;;;6307089;28;20138;-65
2023/09/14 12:37:45;;;;;;;6.28;3.65;;;;;;;;;;6298603;28;20040;-65
2023/09/14 12:40:47;;;;;;;8.52;3.72;;;;;;;;;;6317554;28;20075;-68
2023/09/14 12:43:49;;;;;;;10.15;3.28;;;;;;;;;;6298005;28;20063;-66
2023/09/14 12:46:52;;;;;;;10.80;3.88;;;;;;;;;;6305631;28;20056;-66
2023/09/14 12:50:01;;;;;;;7.85;4.18;;;;;;;;;;6288011;28;20576;-65
2023/09/14 12:53:10;;;;;;;12.82;5.90;;;;;;;;;;6309879;28;20550;-67
2023/09/14 12:56:12;;;;;;;8.70;4.05;;;;;;;;;;6302966;28;20044;-65
2023/09/14 12:59:14;;;;;;;7.88;4.15;;;;;;;;;;6315177;28;20048;-64
2023/09/14 13:02:16;;;;;;;9.95;5.55;;;;;;;;;;6309851;28;20832;-65
2023/09/14 13:05:23;;;;;;;16.48;3.95;;;;;;;;;;6310864;28;20051;-65
2023/09/14 13:08:26;;;;;;;7.80;3.83;;;;;;;;;;6305930;28;20068;-65
2023/09/14 13:11:34;;;;;;;9.30;6.13;;;;;;;;;;6299054;28;20509;-65
2023/09/14 13:14:37;;;;;;;8.95;3.67;;;;;;;;;;6303194;28;20071;-67
2023/09/14 13:17:39;;;;;;;14.35;5.18;;;;;;;;;;6305742;28;20048;-66
2023/09/14 13:20:49;;;;;;;8.00;3.53;;;;;;;;;;6292556;28;20079;-66
2023/09/14 13:23:52;;;;;;;;;;;;;;;;;;6301581;28;20056;-66
2023/09/14 13:26:54;;;;;;;8.93;3.85;;;;;;;;;;6300005;28;19931;-66
2023/09/14 13:29:57;;;;;;;7.72;3.75;;;;;;;;;;6299496;28;20052;-66
2023/09/14 13:32:59;;;;;;;7.82;3.47;;;;;;;;;;6310185;28;20044;-66
2023/09/14 13:36:01;;;;;;;14.13;3.95;;;;;;;;;;6299882;28;20040;-66
2023/09/14 13:39:03;;;;;;;12.32;4.07;;;;;;;;;;6302582;28;20067;-66
2023/09/14 13:42:05;;;;;;;8.75;3.53;;;;;;;;;;6304464;28;20048;-66
2023/09/14 13:45:09;;;;;;;6.05;3.50;;;;;;;;;;6299876;28;20048;-66
2023/09/14 13:48:11;;;;;;;14.23;5.30;;;;;;;;;;6298388;28;20552;-66
2023/09/14 13:51:13;;;;;;;9.75;3.70;;;;;;;;;;6291895;28;20052;-67
2023/09/14 13:54:15;;;;;;;9.60;4.00;;;;;;;;;;6304527;28;20044;-65
2023/09/14 13:57:18;;;;;;;9.90;3.90;;;;;;;;;;6298337;28;20567;-66
2023/09/14 14:00:20;;;;;;;6.72;3.67;;;;;;;;;;6302442;28;20048;-65
2023/09/14 14:03:22;;;;;;;9.63;4.53;;;;;;;;;;6299657;28;20439;-66
2023/09/14 14:06:25;;;;;;;9.38;4.00;;;;;;;;;;6285598;28;20063;-65
2023/09/14 14:09:27;;;;;;;10.05;4.00;;;;;;;;;;6298155;28;20089;-65
2023/09/14 14:12:30;;;;;;;8.38;3.40;;;;;;;;;;6291419;28;20885;-66
2023/09/14 14:15:33;;;;;;;8.00;4.22;;;;;;;;;;6290331;28;20043;-66
2023/09/14 14:18:35;;;;;;;9.07;3.83;;;;;;;;;;6300245;28;20557;-65
2023/09/14 14:21:37;;;;;;;10.13;3.60;;;;;;;;;;6303701;28;20043;-65
2023/09/14 14:24:39;;;;;;;12.85;5.75;;;;;;;;;;6305468;28;20438;-66
2023/09/14 14:27:42;;;;;;;9.13;3.08;;;;;;;;;;6304008;28;20193;-66
2023/09/14 14:30:44;;;;;;;7.07;3.75;;;;;;;;;;6280882;28;20048;-66
2023/09/14 14:33:46;;;;;;;12.40;3.78;;;;;;;;;;6304692;28;20048;-66
2023/09/14 14:36:49;;;;;;;7.72;3.63;;;;;;;;;;6302367;28;20041;-66
2023/09/14 14:39:51;;;;;;;9.60;4.13;;;;;;;;;;6308971;28;20044;-66
2023/09/14 14:42:53;;;;;;;11.48;3.97;;;;;;;;;;6299869;28;20039;-65
2023/09/14 14:45:57;;;;;;;10.40;3.58;;;;;;;;;;6300116;28;20044;-66
2023/09/14 14:49:01;;;;;;;8.13;3.67;;;;;;;;;;6302374;28;20131;-66
2023/09/14 14:52:04;;;;;;;9.43;4.05;;;;;;;;;;6303901;28;20044;-66
2023/09/14 14:55:08;;;;;;;7.95;3.70;;;;;;;;;;6304105;28;20067;-66
2023/09/14 14:58:10;;;;;;;8.82;4.75;;;;;;;;;;6309093;28;20048;-65
2023/09/14 15:01:12;;;;;;;8.50;4.63;;;;;;;;;;6297790;28;20047;-65
2023/09/14 15:04:14;;;;;;;10.48;5.70;;;;;;;;;;6308415;28;20085;-66
2023/09/14 15:07:16;;;;;;;10.88;4.50;;;;;;;;;;6300115;28;20062;-66
2023/09/14 15:10:18;;;;;;;11.95;4.28;;;;;;;;;;6283897;28;20135;-66
2023/09/14 15:13:20;;;;;;;13.10;5.00;;;;;;;;;;6303923;28;20076;-66
2023/09/14 15:16:22;;;;;;;9.43;4.28;;;;;;;;;;6309076;28;20309;-66
2023/09/14 15:19:30;;;;;;;8.30;4.47;;;;;;;;;;6302377;28;20032;-66
2023/09/14 15:22:33;;;;;;;10.70;6.78;;;;;;;;;;6283480;28;20470;-65
2023/09/14 15:25:35;;;;;;;12.35;4.55;;;;;;;;;;6299149;28;20051;-66
2023/09/14 15:28:37;;;;;;;10.77;4.95;;;;;;;;;;6301393;28;20167;-66
2023/09/14 15:31:40;;;;;;;11.93;4.50;;;;;;;;;;6296198;28;20064;-65
2023/09/14 15:34:43;;;;;;;8.40;4.38;;;;;;;;;;6279087;28;20079;-66
2023/09/14 15:37:45;;;;;;;7.97;4.57;;;;;;;;;;6304366;28;20105;-65
2023/09/14 15:40:54;;;;;;;8.60;4.60;;;;;;;;;;6296274;28;20495;-65
2023/09/14 15:43:56;;;;;;;12.10;4.57;;;;;;;;;;6303297;28;20776;-66
2023/09/14 15:46:58;;;;;;;11.75;5.43;;;;;;;;;;6293864;28;20072;-66
2023/09/14 15:50:01;;;;;;;11.18;5.38;;;;;;;;;;6305989;28;20113;-66
2023/09/14 15:53:03;;;;;;;13.95;6.32;;;;;;;;;;6309033;28;20063;-66
2023/09/14 15:56:06;;;;;;;13.07;5.18;;;;;;;;;;6298862;28;20040;-65
2023/09/14 15:59:10;;;;;;;12.30;4.72;;;;;;;;;;6303003;28;20169;-66
2023/09/14 16:02:12;;;;;;;9.88;4.72;;;;;;;;;;6303191;28;20044;-66
2023/09/14 16:05:14;;;;;;;13.32;4.70;;;;;;;;;;6302141;28;20060;-66
2023/09/14 16:08:16;;;;;;;9.20;5.05;;;;;;;;;;6305512;28;20044;-66
2023/09/14 16:11:20;;;;;;;8.15;4.45;;;;;;;;;;6301541;28;20101;-66
2023/09/14 16:14:22;;;;;;;18.25;9.95;;;;;;;;;;6298775;28;20197;-66
2023/09/14 16:17:24;;;;;;;8.75;5.18;;;;;;;;;;6304991;28;20059;-66
2023/09/14 16:20:26;;;;;;;9.75;4.65;;;;;;;;;;6306240;28;20074;-66
2023/09/14 16:23:29;;;;;;;11.18;5.03;;;;;;;;;;6308411;28;20051;-66
2023/09/14 16:26:31;;;;;;;11.75;5.40;;;;;;;;;;6285380;28;20052;-66
2023/09/14 16:29:33;;;;;;;8.77;4.20;;;;;;;;;;6304783;28;20044;-66
2023/09/14 16:32:35;;;;;;;7.00;4.20;;;;;;;;;;6304550;28;20054;-66
2023/09/14 16:35:43;;;;;;;18.55;4.05;;;;;;;;;;6301937;28;21363;-66
2023/09/14 16:38:46;;;;;;;13.30;5.28;;;;;;;;;;6309735;28;20054;-64
2023/09/14 16:41:48;;;;;;;11.70;5.38;;;;;;;;;;6304852;28;20051;-64
2023/09/14 16:44:50;;;;;;;8.97;4.33;;;;;;;;;;6303542;28;20093;-65
2023/09/14 16:47:52;;;;;;;8.13;4.20;;;;;;;;;;6302038;28;20044;-65
2023/09/14 16:50:54;;;;;;;10.70;5.05;;;;;;;;;;6302822;28;20055;-65
2023/09/14 16:53:56;;;;;;;9.75;5.53;;;;;;;;;;6309108;28;20047;-65
2023/09/14 16:56:58;;;;;;;10.80;4.57;;;;;;;;;;6306231;28;20037;-65
2023/09/14 17:00:02;;;;;;;10.90;5.07;;;;;;;;;;6301612;28;20045;-66
2023/09/14 17:03:05;;;;;;;12.85;8.73;;;;;;;;;;6302778;28;20433;-65
2023/09/14 17:06:07;;;;;;;10.70;7.75;;;;;;;;;;6302260;28;20755;-64
2023/09/14 17:09:09;;;;;;;10.20;6.90;;;;;;;;;;6304230;28;20054;-66
2023/09/14 17:12:11;;;;;;;11.52;8.00;;;;;;;;;;6300665;28;20048;-65
2023/09/14 17:15:13;;;;;;;10.23;7.68;;;;;;;;;;6307342;28;20121;-65
2023/09/14 17:18:15;;;;;;;10.43;8.05;;;;;;;;;;6302926;28;20069;-64
2023/09/14 17:21:17;;;;;;;11.95;8.50;;;;;;;;;;6301542;28;20072;-67
2023/09/14 17:24:19;;;;;;;13.85;9.13;;;;;;;;;;6304991;28;20056;-66
2023/09/14 17:27:21;;;;;;;12.82;9.02;;;;;;;;;;6301689;28;20123;-66
2023/09/14 17:30:24;;;;;;;14.95;10.55;;;;;;;;;;6311536;28;20060;-66
2023/09/14 17:33:26;;;;;;;13.25;10.20;;;;;;;;;;6299657;28;20105;-66
2023/09/14 17:36:29;;;;;;;11.25;9.05;;;;;;;;;;6305366;28;20040;-66
2023/09/14 17:39:33;;;;;;;17.25;10.07;;;;;;;;;;6294041;28;20098;-65
2023/09/14 17:42:35;;;;;;;12.82;9.30;;;;;;;;;;6298393;28;20160;-65
2023/09/14 17:45:38;;;;;;;16.10;9.05;;;;;;;;;;6304140;28;20531;-65
2023/09/14 17:48:42;;;;;;;12.82;9.88;;;;;;;;;;6300027;28;20213;-66
2023/09/14 17:51:44;;;;;;;12.38;10.60;;;;;;;;;;6302929;28;20109;-66
2023/09/14 17:54:46;;;;;;;13.10;9.23;;;;;;;;;;6306311;28;20463;-67
2023/09/14 17:57:48;;;;;;;12.85;7.40;;;;;;;;;;6295335;28;20047;-66
2023/09/14 18:00:50;;;;;;;8.60;7.50;;;;;;;;;;6301005;28;20070;-66
2023/09/14 18:03:53;;;;;;;7.22;5.70;;;;;;;;;;6301053;28;20044;-66
2023/09/14 18:06:56;;;;;;;7.60;6.03;;;;;;;;;;6297372;28;20048;-66
2023/09/14 18:09:58;;;;;;;8.32;4.85;;;;;;;;;;6286283;28;20047;-65